createdAt,value
2023-02-25T00:01:34.764Z,99266.88
2023-02-25T00:04:01.683Z,99262.28
2023-02-25T00:06:28.576Z,99212.84
2023-02-25T00:08:55.656Z,99265.56
2023-02-25T00:11:25.709Z,99257.56
2023-02-25T00:13:52.698Z,99233.69
2023-02-25T00:16:21.470Z,99197.03
2023-02-25T00:18:49.286Z,99250.19
2023-02-25T00:21:16.854Z,99164.19
2023-02-25T00:23:45.698Z,99206.97
2023-02-25T00:26:15.482Z,99293.13
2023-02-25T00:28:43.062Z,99288.00
2023-02-25T00:31:12.220Z,99182.13
2023-02-25T00:33:42.039Z,99118.50
2023-02-25T00:36:12.096Z,99299.47
2023-02-25T00:38:38.951Z,99211.88
2023-02-25T00:41:13.479Z,99290.38
2023-02-25T00:43:49.710Z,99285.88
2023-02-25T00:46:16.518Z,99254.28
2023-02-25T00:48:43.353Z,99261.75
2023-02-25T00:51:13.464Z,99283.75
2023-02-25T00:53:40.922Z,99184.16
2023-02-25T00:56:09.504Z,99269.06
2023-02-25T00:58:38.252Z,99247.22
2023-02-25T01:01:15.053Z,99190.25
2023-02-25T01:03:41.755Z,99220.03
2023-02-25T01:06:09.535Z,99239.19
2023-02-25T01:08:36.512Z,99307.50
2023-02-25T01:11:21.466Z,99277.59
2023-02-25T01:13:49.846Z,99285.38
2023-02-25T01:16:19.868Z,99299.72
2023-02-25T01:18:50.232Z,99255.75
2023-02-25T01:21:18.926Z,99292.38
2023-02-25T01:23:46.905Z,99280.88
2023-02-25T01:26:14.380Z,99259.38
2023-02-25T01:28:41.324Z,99262.91
2023-02-25T01:31:17.056Z,99267.75
2023-02-25T01:33:44.053Z,99279.59
2023-02-25T01:36:10.747Z,99160.94
2023-02-25T01:38:37.501Z,99067.91
2023-02-25T01:41:04.468Z,99190.97
2023-02-25T01:43:31.163Z,99201.28
2023-02-25T01:45:57.913Z,99291.47
2023-02-25T01:48:29.356Z,99171.00
2023-02-25T01:50:59.505Z,99272.38
2023-02-25T01:53:34.163Z,99196.91
2023-02-25T01:56:01.727Z,99197.00
2023-02-25T01:58:29.488Z,99201.28
2023-02-25T02:00:56.504Z,99280.63
2023-02-25T02:03:30.798Z,99117.06
2023-02-25T02:06:13.616Z,99274.19
2023-02-25T02:08:42.668Z,99159.06
2023-02-25T02:11:09.473Z,99281.91
2023-02-25T02:13:39.147Z,99308.63
2023-02-25T02:16:24.711Z,99310.28
2023-02-25T02:19:06.135Z,99282.28
2023-02-25T02:21:56.152Z,99219.84
2023-02-25T02:24:41.265Z,99306.09
2023-02-25T02:27:14.518Z,99306.91
2023-02-25T02:29:54.027Z,99300.13
2023-02-25T02:32:41.007Z,99315.69
2023-02-25T02:35:44.551Z,99264.03
2023-02-25T02:38:22.005Z,99317.50
2023-02-25T02:41:06.810Z,99314.94
2023-02-25T02:43:45.321Z,99285.00
2023-02-25T02:46:27.544Z,99300.00
2023-02-25T02:49:09.480Z,99263.13
2023-02-25T02:51:48.676Z,99231.59
2023-02-25T02:54:18.133Z,99171.84
2023-02-25T02:56:49.390Z,99290.31
2023-02-25T02:59:27.570Z,99274.19
2023-02-25T03:02:04.455Z,99126.56
2023-02-25T03:04:35.504Z,99212.78
2023-02-25T03:07:06.009Z,99169.03
2023-02-25T03:09:38.287Z,99310.28
2023-02-25T03:12:05.110Z,99133.78
2023-02-25T03:14:31.880Z,99266.47
2023-02-25T03:17:05.409Z,99321.34
2023-02-25T03:19:42.477Z,99163.63
2023-02-25T03:22:14.291Z,99316.22
2023-02-25T03:24:49.225Z,99139.31
2023-02-25T03:27:34.554Z,99226.94
2023-02-25T03:30:12.825Z,99313.59
2023-02-25T03:32:47.876Z,99318.84
2023-02-25T03:35:17.964Z,99311.03
2023-02-25T03:37:48.426Z,99316.91
2023-02-25T03:40:18.364Z,99187.34
2023-02-25T03:42:51.207Z,99289.88
2023-02-25T03:45:18.420Z,99318.53
2023-02-25T03:47:45.588Z,99294.84
2023-02-25T03:50:14.601Z,99324.53
2023-02-25T03:52:42.231Z,99275.28
2023-02-25T03:55:10.432Z,99341.31
2023-02-25T03:57:40.274Z,99272.28
2023-02-25T04:00:28.403Z,99340.50
2023-02-25T04:02:55.357Z,99331.94
2023-02-25T04:05:23.812Z,99310.56
2023-02-25T04:07:50.620Z,99315.09
2023-02-25T04:10:17.630Z,99326.94
2023-02-25T04:12:44.291Z,99303.88
2023-02-25T04:15:11.330Z,99353.34
2023-02-25T04:17:37.911Z,99352.31
2023-02-25T04:20:05.658Z,99300.41
2023-02-25T04:22:33.449Z,99208.28
2023-02-25T04:25:00.339Z,99298.03
2023-02-25T04:27:27.463Z,99353.59
2023-02-25T04:29:54.195Z,99236.56
2023-02-25T04:32:21.010Z,99200.78
2023-02-25T04:34:47.773Z,99347.78
2023-02-25T04:37:14.488Z,99272.22
2023-02-25T04:39:41.659Z,99359.97
2023-02-25T04:42:08.700Z,99352.41
2023-02-25T04:44:35.333Z,99287.72
2023-02-25T04:47:02.150Z,99270.03
2023-02-25T04:49:28.809Z,99310.38
2023-02-25T04:51:55.483Z,99292.31
2023-02-25T04:54:22.568Z,99356.66
2023-02-25T04:56:49.369Z,99266.31
2023-02-25T04:59:17.513Z,99153.00
2023-02-25T05:01:44.281Z,99176.69
2023-02-25T05:04:11.516Z,99313.06
2023-02-25T05:06:39.329Z,99311.25
2023-02-25T05:09:06.071Z,99280.03
2023-02-25T05:11:33.018Z,99348.16
2023-02-25T05:13:59.707Z,99349.91
2023-02-25T05:16:27.770Z,99365.00
2023-02-25T05:18:55.051Z,99283.63
2023-02-25T05:21:24.468Z,99354.69
2023-02-25T05:23:53.417Z,99302.06
2023-02-25T05:26:22.447Z,99225.63
2023-02-25T05:28:51.433Z,99342.84
2023-02-25T05:31:18.584Z,99307.47
2023-02-25T05:33:45.562Z,99307.00
2023-02-25T05:36:14.617Z,99365.28
2023-02-25T05:38:41.534Z,99283.97
2023-02-25T05:41:09.284Z,99245.19
2023-02-25T05:43:37.069Z,99286.88
2023-02-25T05:46:05.093Z,99330.28
2023-02-25T05:48:32.832Z,99265.59
2023-02-25T05:51:05.193Z,99338.94
2023-02-25T05:53:32.508Z,99339.84
2023-02-25T05:55:59.974Z,99346.09
2023-02-25T05:58:26.777Z,99340.09
2023-02-25T06:00:54.083Z,99056.59
2023-02-25T06:03:21.113Z,99201.22
2023-02-25T06:05:48.145Z,99285.28
2023-02-25T06:08:14.916Z,99258.09
2023-02-25T06:10:41.543Z,99326.84
2023-02-25T06:13:09.840Z,99365.09
2023-02-25T06:15:41.772Z,99362.75
2023-02-25T06:18:09.662Z,99343.91
2023-02-25T06:20:36.480Z,99359.94
2023-02-25T06:23:03.948Z,99359.13
2023-02-25T06:25:30.698Z,99233.53
2023-02-25T06:27:58.512Z,99254.78
2023-02-25T06:30:25.296Z,99347.97
2023-02-25T06:32:52.178Z,99376.28
2023-02-25T06:35:23.766Z,99279.28
2023-02-25T06:37:58.232Z,99253.63
2023-02-25T06:40:25.920Z,99372.47
2023-02-25T06:42:52.740Z,99302.84
2023-02-25T06:45:19.374Z,99284.56
2023-02-25T06:47:46.045Z,99392.22
2023-02-25T06:50:12.690Z,99383.56
2023-02-25T06:52:40.511Z,99345.97
2023-02-25T06:55:07.760Z,99369.19
2023-02-25T06:57:36.065Z,99400.03
2023-02-25T07:00:05.567Z,99389.16
2023-02-25T07:02:34.335Z,99343.56
2023-02-25T07:05:03.120Z,99398.00
2023-02-25T07:07:29.700Z,99169.03
2023-02-25T07:09:56.271Z,99324.63
2023-02-25T07:12:23.081Z,99319.34
2023-02-25T07:14:50.199Z,99373.22
2023-02-25T07:17:16.793Z,99355.56
2023-02-25T07:19:43.459Z,99420.78
2023-02-25T07:22:15.889Z,99408.84
2023-02-25T07:25:43.298Z,99156.38
2023-02-25T07:28:09.980Z,99438.25
2023-02-25T07:30:55.363Z,99102.97
2023-02-25T07:33:22.079Z,99187.94
2023-02-25T07:35:48.745Z,99320.66
2023-02-25T07:38:15.504Z,99398.56
2023-02-25T07:40:42.205Z,99341.28
2023-02-25T07:43:08.889Z,99405.06
2023-02-25T07:45:35.662Z,99442.72
2023-02-25T07:48:02.510Z,99311.63
2023-02-25T07:50:29.446Z,99377.13
2023-02-25T07:52:57.659Z,99262.69
2023-02-25T07:55:27.171Z,99254.41
2023-02-25T07:57:53.872Z,99414.97
2023-02-25T08:00:20.769Z,99256.03
2023-02-25T08:02:47.522Z,99303.16
2023-02-25T08:05:14.308Z,99405.66
2023-02-25T08:07:41.466Z,99218.69
2023-02-25T08:10:08.713Z,99443.66
2023-02-25T08:12:35.480Z,99453.19
2023-02-25T08:15:02.358Z,99356.59
2023-02-25T08:17:32.820Z,99346.38
2023-02-25T08:19:59.744Z,99188.75
2023-02-25T08:22:26.389Z,99429.44
2023-02-25T08:24:53.360Z,99345.63
2023-02-25T08:27:20.235Z,99462.59
2023-02-25T08:29:46.859Z,99460.53
2023-02-25T08:32:13.715Z,99413.44
2023-02-25T08:34:40.502Z,99442.88
2023-02-25T08:37:11.142Z,99217.56
2023-02-25T08:39:38.178Z,99447.69
2023-02-25T08:42:05.534Z,99179.44
2023-02-25T08:44:32.255Z,99413.25
2023-02-25T08:46:59.069Z,99309.13
2023-02-25T08:49:25.811Z,99433.75
2023-02-25T08:51:52.663Z,99408.13
2023-02-25T08:54:19.341Z,99427.91
2023-02-25T08:56:46.005Z,99365.16
2023-02-25T08:59:15.827Z,99472.50
2023-02-25T09:01:45.725Z,99354.75
2023-02-25T09:04:18.076Z,99174.47
2023-02-25T09:06:47.586Z,99182.16
2023-02-25T09:09:18.357Z,99331.69
2023-02-25T09:11:44.990Z,99460.56
2023-02-25T09:14:12.265Z,99415.88
2023-02-25T09:16:39.071Z,99177.69
2023-02-25T09:19:05.785Z,99270.84
2023-02-25T09:21:32.628Z,99470.22
2023-02-25T09:23:59.917Z,99420.81
2023-02-25T09:26:26.668Z,99392.94
2023-02-25T09:28:53.397Z,99432.78
2023-02-25T09:31:20.208Z,99427.72
2023-02-25T09:33:47.113Z,99437.94
2023-02-25T09:36:19.246Z,99425.75
2023-02-25T09:38:47.688Z,99432.09
2023-02-25T09:41:35.480Z,99470.19
2023-02-25T09:44:34.137Z,99473.28
2023-02-25T09:47:06.394Z,99392.59
2023-02-25T09:50:00.466Z,99465.97
2023-02-25T09:52:52.856Z,99426.66
2023-02-25T09:55:38.050Z,99282.13
2023-02-25T09:58:17.437Z,99448.94
2023-02-25T10:01:16.754Z,99442.09
2023-02-25T10:04:08.514Z,99460.06
2023-02-25T10:06:44.404Z,99418.44
2023-02-25T10:09:39.198Z,99391.75
2023-02-25T10:12:29.570Z,99458.09
2023-02-25T10:15:20.679Z,99314.56
2023-02-25T10:18:09.085Z,99465.44
2023-02-25T10:21:13.758Z,99465.25
2023-02-25T10:24:17.871Z,99463.75
2023-02-25T10:26:49.593Z,99442.03
2023-02-25T10:29:31.927Z,99450.16
2023-02-25T10:32:00.884Z,99462.56
2023-02-25T10:34:29.620Z,99475.47
2023-02-25T10:36:59.342Z,99460.38
2023-02-25T10:39:27.668Z,99416.50
2023-02-25T10:41:54.612Z,99364.00
2023-02-25T10:44:21.554Z,99472.97
2023-02-25T10:47:07.233Z,99461.78
2023-02-25T10:49:38.705Z,99463.28
2023-02-25T10:52:17.806Z,99465.56
2023-02-25T10:54:53.079Z,99462.50
2023-02-25T10:57:27.264Z,99468.06
2023-02-25T11:00:08.472Z,99445.91
2023-02-25T11:02:41.629Z,99371.00
2023-02-25T11:05:33.337Z,99468.56
2023-02-25T11:08:00.161Z,99383.31
2023-02-25T11:10:27.209Z,99480.03
2023-02-25T11:12:57.203Z,99485.84
2023-02-25T11:15:31.661Z,99467.22
2023-02-25T11:18:23.074Z,99474.19
2023-02-25T11:21:02.489Z,99434.31
2023-02-25T11:23:34.775Z,99442.59
2023-02-25T11:26:01.995Z,99326.72
2023-02-25T11:28:32.412Z,99487.88
2023-02-25T11:31:29.607Z,99499.69
2023-02-25T11:33:59.748Z,99440.28
2023-02-25T11:36:31.389Z,99456.53
2023-02-25T11:39:18.988Z,99515.41
2023-02-25T11:41:54.091Z,99477.81
2023-02-25T11:44:26.997Z,99500.94
2023-02-25T11:47:04.742Z,99487.19
2023-02-25T11:49:56.013Z,99486.00
2023-02-25T11:52:40.681Z,99481.00
2023-02-25T11:55:12.745Z,99490.91
2023-02-25T11:58:05.249Z,99490.78
2023-02-25T12:00:55.791Z,99501.75
2023-02-25T12:04:06.488Z,99495.19
2023-02-25T12:06:35.682Z,99494.97
2023-02-25T12:09:11.406Z,99488.88
2023-02-25T12:12:19.083Z,99451.78
2023-02-25T12:15:24.311Z,99473.09
2023-02-25T12:17:53.937Z,99487.66
2023-02-25T12:20:48.246Z,99412.78
2023-02-25T12:26:44.217Z,99435.59
2023-02-25T12:29:39.015Z,99467.94
2023-02-25T12:32:55.776Z,99407.13
2023-02-25T12:35:23.078Z,99478.06
2023-02-25T12:38:23.497Z,99476.50
2023-02-25T12:41:04.075Z,99481.53
2023-02-25T12:43:42.873Z,99438.63
2023-02-25T12:46:27.312Z,99487.94
2023-02-25T12:49:00.128Z,99480.88
2023-02-25T12:52:00.033Z,99246.16
2023-02-25T12:54:51.650Z,99350.41
2023-02-25T12:57:48.998Z,99470.41
2023-02-25T13:00:42.944Z,99472.97
2023-02-25T13:03:21.334Z,99476.81
2023-02-25T13:06:20.724Z,99481.84
2023-02-25T13:09:17.828Z,99461.91
2023-02-25T13:12:13.637Z,99464.47
2023-02-25T13:15:05.311Z,99467.47
2023-02-25T13:18:07.228Z,99474.94
2023-02-25T13:20:33.708Z,99467.94
2023-02-25T13:23:35.907Z,99451.63
2023-02-25T13:26:28.697Z,99463.75
2023-02-25T13:29:24.795Z,99470.47
2023-02-25T13:32:24.792Z,99461.00
2023-02-25T13:35:25.094Z,99468.56
2023-02-25T13:38:11.369Z,99485.94
2023-02-25T13:41:05.896Z,99466.94
2023-02-25T13:43:46.525Z,99479.13
2023-02-25T13:46:29.993Z,99447.44
2023-02-25T13:49:27.852Z,99479.53
2023-02-25T13:52:21.299Z,99471.19
2023-02-25T13:55:07.521Z,99459.09
2023-02-25T13:57:55.023Z,99446.16
2023-02-25T14:00:59.177Z,99485.00
2023-02-25T14:03:50.492Z,99492.25
2023-02-25T14:06:23.037Z,99497.31
2023-02-25T14:09:18.334Z,99502.16
2023-02-25T14:12:22.703Z,99468.31
2023-02-25T14:15:15.724Z,99492.66
2023-02-25T14:17:57.473Z,99536.94
2023-02-25T14:20:31.615Z,99556.56
2023-02-25T14:23:11.980Z,99509.06
2023-02-25T14:25:50.864Z,99425.72
2023-02-25T14:28:32.830Z,99563.31
2023-02-25T14:31:14.437Z,99572.34
2023-02-25T14:34:06.050Z,99574.97
2023-02-25T14:36:57.545Z,99539.34
2023-02-25T14:40:02.095Z,99523.19
2023-02-25T14:42:46.904Z,99467.69
2023-02-25T14:45:18.768Z,99568.50
2023-02-25T14:48:01.743Z,99501.13
2023-02-25T14:50:44.253Z,99573.84
2023-02-25T14:53:53.503Z,99440.13
2023-02-25T14:56:49.293Z,99568.78
2023-02-25T15:00:00.851Z,99571.91
2023-02-25T15:02:50.775Z,99486.66
2023-02-25T15:05:36.312Z,99569.78
2023-02-25T15:08:21.811Z,99579.56
2023-02-25T15:11:31.192Z,99573.91
2023-02-25T15:14:24.960Z,99546.56
2023-02-25T15:17:22.485Z,99577.34
2023-02-25T15:19:58.849Z,99578.75
2023-02-25T15:22:33.240Z,99590.00
2023-02-25T15:25:21.748Z,99588.28
2023-02-25T15:27:50.425Z,99484.06
2023-02-25T15:30:22.789Z,99553.78
2023-02-25T15:33:16.214Z,99596.03
2023-02-25T15:35:43.499Z,99612.00
2023-02-25T15:38:21.636Z,99559.09
2023-02-25T15:40:52.711Z,99621.63
2023-02-25T15:43:19.302Z,99619.81
2023-02-25T15:45:49.015Z,99598.38
2023-02-25T15:48:21.576Z,99627.13
2023-02-25T15:50:48.173Z,99625.63
2023-02-25T15:53:21.317Z,99623.88
2023-02-25T15:55:51.838Z,99600.81
2023-02-25T15:58:24.219Z,99638.06
2023-02-25T16:00:57.160Z,99558.03
2023-02-25T16:03:34.864Z,99637.47
2023-02-25T16:06:24.712Z,99648.00
2023-02-25T16:08:53.782Z,99583.41
2023-02-25T16:11:34.752Z,99547.69
2023-02-25T16:14:07.261Z,99612.94
2023-02-25T16:16:35.887Z,99629.88
2023-02-25T16:19:07.013Z,99606.47
2023-02-25T16:21:46.427Z,99654.78
2023-02-25T16:24:13.901Z,99647.44
2023-02-25T16:26:56.033Z,99696.88
2023-02-25T16:29:44.188Z,99692.69
2023-02-25T16:32:38.980Z,99698.78
2023-02-25T16:35:24.289Z,99680.44
2023-02-25T16:37:58.045Z,99706.53
2023-02-25T16:40:36.491Z,99713.66
2023-02-25T16:43:03.357Z,99674.94
2023-02-25T16:45:34.076Z,99647.69
2023-02-25T16:48:05.178Z,99741.06
2023-02-25T16:50:33.966Z,99717.44
2023-02-25T16:53:02.428Z,99699.69
2023-02-25T16:55:38.924Z,99671.59
2023-02-25T16:58:14.720Z,99768.59
2023-02-25T17:00:55.884Z,99777.53
2023-02-25T17:03:25.179Z,99751.81
2023-02-25T17:06:02.986Z,99786.28
2023-02-25T17:08:29.704Z,99677.44
2023-02-25T17:11:00.024Z,99680.38
2023-02-25T17:13:29.266Z,99726.72
2023-02-25T17:15:56.477Z,99516.91
2023-02-25T17:18:31.426Z,99677.84
2023-02-25T17:21:16.923Z,99783.03
2023-02-25T17:23:44.905Z,99651.66
2023-02-25T17:26:16.370Z,99676.06
2023-02-25T17:28:46.194Z,99754.25
2023-02-25T17:31:19.157Z,99830.13
2023-02-25T17:33:49.334Z,99839.03
2023-02-25T17:36:19.792Z,99774.84
2023-02-25T17:38:47.614Z,99770.09
2023-02-25T17:41:19.265Z,99789.19
2023-02-25T17:43:46.203Z,99836.59
2023-02-25T17:46:38.014Z,99841.16
2023-02-25T17:49:22.494Z,99861.97
2023-02-25T17:51:57.459Z,99620.25
2023-02-25T17:54:26.253Z,99673.41
2023-02-25T17:56:58.904Z,99881.44
2023-02-25T17:59:28.285Z,99873.75
2023-02-25T18:01:59.728Z,99802.59
2023-02-25T18:04:34.664Z,99874.81
2023-02-25T18:07:32.724Z,99817.28
2023-02-25T18:10:02.546Z,99819.88
2023-02-25T18:12:33.307Z,99806.91
2023-02-25T18:15:01.549Z,99893.59
2023-02-25T18:17:39.658Z,99898.03
2023-02-25T18:20:28.931Z,99900.53
2023-02-25T18:22:56.745Z,99774.34
2023-02-25T18:25:29.414Z,99907.75
2023-02-25T18:27:56.233Z,99876.25
2023-02-25T18:30:26.269Z,99921.00
2023-02-25T18:32:57.514Z,99915.00
2023-02-25T18:35:25.702Z,99907.28
2023-02-25T18:37:54.552Z,99906.75
2023-02-25T18:40:32.566Z,99866.50
2023-02-25T18:43:00.454Z,99899.16
2023-02-25T18:45:29.412Z,99778.22
2023-02-25T18:47:57.037Z,99765.41
2023-02-25T18:50:25.689Z,99859.91
2023-02-25T18:52:52.445Z,99836.94
2023-02-25T18:55:25.938Z,99848.84
2023-02-25T18:57:53.181Z,99904.91
2023-02-25T19:00:23.222Z,99845.81
2023-02-25T19:03:10.019Z,99928.56
2023-02-25T19:05:37.941Z,99928.69
2023-02-25T19:08:14.921Z,99845.34
2023-02-25T19:10:43.820Z,99933.22
2023-02-25T19:13:20.436Z,99904.75
2023-02-25T19:15:47.427Z,99783.66
2023-02-25T19:18:15.838Z,99943.75
2023-02-25T19:20:44.130Z,99953.28
2023-02-25T19:23:17.200Z,99942.09
2023-02-25T19:25:46.455Z,99937.09
2023-02-25T19:28:24.841Z,99939.84
2023-02-25T19:30:51.517Z,99919.25
2023-02-25T19:33:18.201Z,99934.03
2023-02-25T19:35:45.051Z,99981.31
2023-02-25T19:38:17.785Z,99850.47
2023-02-25T19:40:48.319Z,99882.41
2023-02-25T19:43:16.478Z,99693.38
2023-02-25T19:46:01.808Z,99816.34
2023-02-25T19:48:55.735Z,99675.34
2023-02-25T19:51:25.468Z,99822.59
2023-02-25T19:54:07.181Z,99900.81
2023-02-25T19:56:46.868Z,99832.19
2023-02-25T19:59:16.843Z,99996.66
2023-02-25T20:01:43.859Z,100020.78
2023-02-25T20:04:12.481Z,99896.84
2023-02-25T20:06:41.874Z,99853.94
2023-02-25T20:09:09.885Z,99898.69
2023-02-25T20:11:36.830Z,99865.25
2023-02-25T20:14:04.236Z,99995.19
2023-02-25T20:16:31.965Z,100048.78
2023-02-25T20:18:58.716Z,100049.75
2023-02-25T20:21:27.091Z,100012.81
2023-02-25T20:23:53.722Z,99995.63
2023-02-25T20:26:23.062Z,99960.34
2023-02-25T20:28:52.568Z,99987.84
2023-02-25T20:31:20.136Z,100010.41
2023-02-25T20:33:49.895Z,99763.22
2023-02-25T20:36:23.707Z,99994.75
2023-02-25T20:39:28.130Z,100050.78
2023-02-25T20:41:54.793Z,100010.41
2023-02-25T20:44:21.513Z,99965.03
2023-02-25T20:46:48.317Z,100063.28
2023-02-25T20:49:18.532Z,100069.22
2023-02-25T20:51:47.381Z,99956.41
2023-02-25T20:54:16.414Z,100015.06
2023-02-25T20:56:43.471Z,100029.88
2023-02-25T20:59:11.971Z,100047.31
2023-02-25T21:01:39.194Z,100045.53
2023-02-25T21:04:06.483Z,100070.56
2023-02-25T21:06:34.161Z,100093.75
2023-02-25T21:09:01.115Z,100043.88
2023-02-25T21:11:28.099Z,100066.22
2023-02-25T21:13:55.063Z,99892.19
2023-02-25T21:16:23.661Z,100086.06
2023-02-25T21:18:51.764Z,100057.75
2023-02-25T21:21:21.500Z,100034.47
2023-02-25T21:23:49.547Z,100033.84
2023-02-25T21:26:16.396Z,100027.78
2023-02-25T21:28:43.107Z,100023.44
2023-02-25T21:31:12.472Z,100033.72
2023-02-25T21:33:40.627Z,100074.28
2023-02-25T21:36:09.179Z,100108.88
2023-02-25T21:38:36.851Z,99984.75
2023-02-25T21:41:09.877Z,99977.06
2023-02-25T21:43:37.950Z,100067.59
2023-02-25T21:46:07.929Z,99946.88
2023-02-25T21:48:34.665Z,100017.56
2023-02-25T21:51:01.353Z,100067.47
2023-02-25T21:53:28.829Z,100033.09
2023-02-25T21:55:57.163Z,100081.56
2023-02-25T21:58:24.030Z,100109.09
2023-02-25T22:00:50.859Z,100115.22
2023-02-25T22:03:17.883Z,100067.00
2023-02-25T22:05:49.775Z,99955.66
2023-02-25T22:08:16.356Z,99961.72
2023-02-25T22:10:42.932Z,100007.41
2023-02-25T22:13:09.407Z,100125.69
2023-02-25T22:15:36.436Z,100127.47
2023-02-25T22:18:03.156Z,99891.91
2023-02-25T22:20:29.745Z,100025.50
2023-02-25T22:22:58.080Z,99964.41
2023-02-25T22:25:24.854Z,99869.81
2023-02-25T22:27:52.201Z,100081.00
2023-02-25T22:30:19.118Z,100039.72
2023-02-25T22:32:45.843Z,99937.03
2023-02-25T22:35:12.493Z,100134.53
2023-02-25T22:37:39.245Z,100087.97
2023-02-25T22:40:06.481Z,100086.22
2023-02-25T22:42:35.112Z,100054.25
2023-02-25T22:45:01.892Z,100104.31
2023-02-25T22:47:28.606Z,100039.66
2023-02-25T22:49:55.173Z,100044.06
2023-02-25T22:52:21.800Z,100025.00
2023-02-25T22:54:48.512Z,100129.47
2023-02-25T22:57:15.233Z,99964.84
2023-02-25T22:59:41.891Z,100076.97
2023-02-25T23:02:08.581Z,100142.44
2023-02-25T23:04:35.434Z,100142.44
2023-02-25T23:07:02.177Z,100100.94
2023-02-25T23:09:28.887Z,100150.19
2023-02-25T23:11:55.656Z,100053.59
2023-02-25T23:14:22.497Z,100062.31
2023-02-25T23:16:49.038Z,100152.91
2023-02-25T23:19:17.595Z,100111.59
2023-02-25T23:21:44.869Z,100151.22
2023-02-25T23:24:18.550Z,100135.84
2023-02-25T23:26:47.729Z,100159.88
2023-02-25T23:29:15.048Z,100035.66
2023-02-25T23:31:44.301Z,99986.53
2023-02-25T23:34:14.282Z,100164.19
2023-02-25T23:36:43.031Z,100102.94
2023-02-25T23:39:12.259Z,100148.53
2023-02-25T23:41:39.620Z,100023.56
2023-02-25T23:44:08.703Z,99927.75
2023-02-25T23:46:36.179Z,100122.56
2023-02-25T23:49:06.097Z,100031.22
2023-02-25T23:51:33.967Z,100161.47
2023-02-25T23:54:03.609Z,100028.53
2023-02-25T23:56:31.490Z,100117.31
2023-02-25T23:58:58.251Z,100146.69
